createdAt,value
2022-12-12T00:01:35.604Z,-3.65
2022-12-12T00:03:44.187Z,-3.68
2022-12-12T00:05:52.952Z,-3.7
2022-12-12T00:07:58.905Z,-3.68
2022-12-12T00:10:06.967Z,-3.65
2022-12-12T00:12:15.052Z,-3.64
2022-12-12T00:14:22.241Z,-3.65
2022-12-12T00:16:28.060Z,-3.68
2022-12-12T00:18:38.965Z,-3.65
2022-12-12T00:20:44.549Z,-3.65
2022-12-12T00:22:53.540Z,-3.66
2022-12-12T00:24:59.139Z,-3.65
2022-12-12T00:27:07.204Z,-3.64
2022-12-12T00:29:18.695Z,-3.64
2022-12-12T00:31:24.396Z,-3.62
2022-12-12T00:33:30.375Z,-3.62
2022-12-12T00:35:36.186Z,-3.64
2022-12-12T00:37:47.889Z,-3.66
2022-12-12T00:39:53.792Z,-3.63
2022-12-12T00:41:59.279Z,-3.63
2022-12-12T00:44:04.966Z,-3.65
2022-12-12T00:46:12.524Z,-3.67
2022-12-12T00:48:21.273Z,-3.67
2022-12-12T00:50:28.522Z,-3.68
2022-12-12T00:52:36.917Z,-3.67
2022-12-12T00:54:46.306Z,-3.67
2022-12-12T00:56:51.701Z,-3.69
2022-12-12T00:58:57.568Z,-3.68
2022-12-12T01:01:03.395Z,-3.69
2022-12-12T01:03:09.718Z,-3.69
2022-12-12T01:05:15.952Z,-3.66
2022-12-12T01:07:21.477Z,-3.64
2022-12-12T01:09:29.885Z,-3.64
2022-12-12T01:11:35.596Z,-3.65
2022-12-12T01:13:44.059Z,-3.63
2022-12-12T01:15:49.587Z,-3.65
2022-12-12T01:17:55.336Z,-3.67
2022-12-12T01:20:00.974Z,-3.62
2022-12-12T01:22:09.932Z,-3.65
2022-12-12T01:24:17.152Z,-3.62
2022-12-12T01:26:24.772Z,-3.64
2022-12-12T01:28:33.133Z,-3.62
2022-12-12T01:30:41.791Z,-3.63
2022-12-12T01:32:51.129Z,-3.68
2022-12-12T01:34:56.967Z,-3.67
2022-12-12T01:37:04.119Z,-3.67
2022-12-12T01:39:12.823Z,-3.65
2022-12-12T01:41:20.827Z,-3.64
2022-12-12T01:43:26.696Z,-3.61
2022-12-12T01:45:32.382Z,-3.63
2022-12-12T01:47:44.123Z,-3.63
2022-12-12T01:49:51.794Z,-3.63
2022-12-12T01:52:01.004Z,-3.64
2022-12-12T01:54:10.041Z,-3.63
2022-12-12T01:56:17.149Z,-3.65
2022-12-12T01:58:23.010Z,-3.65
2022-12-12T02:00:30.275Z,-3.66
2022-12-12T02:02:36.216Z,-3.63
2022-12-12T02:04:47.814Z,-3.64
2022-12-12T02:06:53.381Z,-3.63
2022-12-12T02:09:04.807Z,-3.62
2022-12-12T02:11:13.115Z,-3.63
2022-12-12T02:13:20.577Z,-3.61
2022-12-12T02:15:29.121Z,-3.63
2022-12-12T02:17:34.742Z,-3.66
2022-12-12T02:19:44.299Z,-3.63
2022-12-12T02:21:53.651Z,-3.63
2022-12-12T02:23:59.324Z,-3.64
2022-12-12T02:26:07.237Z,-3.62
2022-12-12T02:28:12.827Z,-3.62
2022-12-12T02:30:18.356Z,-3.63
2022-12-12T02:32:29.198Z,-3.64
2022-12-12T02:34:35.738Z,-3.62
2022-12-12T02:36:53.042Z,-3.63
2022-12-12T02:38:58.608Z,-3.61
2022-12-12T02:41:04.294Z,-3.63
2022-12-12T02:43:09.858Z,-3.63
2022-12-12T02:45:17.051Z,-3.62
2022-12-12T02:47:25.628Z,-3.61
2022-12-12T02:49:33.996Z,-3.61
2022-12-12T02:51:42.760Z,-3.62
2022-12-12T02:53:55.615Z,-3.58
2022-12-12T02:56:03.526Z,-3.59
2022-12-12T02:58:09.202Z,-3.57
2022-12-12T03:00:17.110Z,-3.58
2022-12-12T03:02:25.363Z,-3.58
2022-12-12T03:04:30.718Z,-3.61
2022-12-12T03:06:40.880Z,-3.59
2022-12-12T03:08:49.168Z,-3.53
2022-12-12T03:10:56.240Z,-3.51
2022-12-12T03:13:01.653Z,-3.56
2022-12-12T03:15:10.096Z,-3.53
2022-12-12T03:17:19.867Z,-3.52
2022-12-12T03:19:26.938Z,-3.49
2022-12-12T03:21:32.567Z,-3.47
2022-12-12T03:23:41.015Z,-3.45
2022-12-12T03:25:46.532Z,-3.46
2022-12-12T03:27:54.812Z,-3.47
2022-12-12T03:30:03.190Z,-3.49
2022-12-12T03:32:14.689Z,-3.51
2022-12-12T03:34:24.894Z,-3.45
2022-12-12T03:36:30.399Z,-3.48
2022-12-12T03:38:38.843Z,-3.42
2022-12-12T03:40:46.399Z,-3.42
2022-12-12T03:42:52.036Z,-3.45
2022-12-12T03:44:57.851Z,-3.44
2022-12-12T03:47:04.148Z,-3.44
2022-12-12T03:49:11.598Z,-3.39
2022-12-12T03:51:20.178Z,-3.4
2022-12-12T03:53:26.084Z,-3.4
2022-12-12T03:55:32.813Z,-3.37
2022-12-12T03:57:40.127Z,-3.34
2022-12-12T03:59:48.192Z,-3.37
2022-12-12T04:02:00.172Z,-3.33
2022-12-12T04:04:11.393Z,-3.3
2022-12-12T04:06:20.249Z,-3.29
2022-12-12T04:08:26.024Z,-3.29
2022-12-12T04:10:32.214Z,-3.28
2022-12-12T04:12:37.831Z,-3.25
2022-12-12T04:14:46.234Z,-3.25
2022-12-12T04:16:55.385Z,-3.21
2022-12-12T04:19:06.664Z,-3.23
2022-12-12T04:21:15.768Z,-3.22
2022-12-12T04:23:21.439Z,-3.2
2022-12-12T04:25:29.293Z,-3.2
2022-12-12T04:27:34.676Z,-3.19
2022-12-12T04:29:40.578Z,-3.16
2022-12-12T04:31:46.321Z,-3.14
2022-12-12T04:33:52.365Z,-3.12
2022-12-12T04:36:00.427Z,-3.1
2022-12-12T04:38:07.694Z,-3.1
2022-12-12T04:40:13.580Z,-3.07
2022-12-12T04:42:21.052Z,-3.04
2022-12-12T04:44:30.159Z,-3.04
2022-12-12T04:46:40.328Z,-2.99
2022-12-12T04:48:51.794Z,-2.96
2022-12-12T04:51:02.056Z,-2.95
2022-12-12T04:53:07.641Z,-2.92
2022-12-12T04:55:22.465Z,-2.9
2022-12-12T04:57:28.613Z,-2.87
2022-12-12T04:59:34.804Z,-2.84
2022-12-12T05:01:51.258Z,-2.83
2022-12-12T05:03:59.322Z,-2.85
2022-12-12T05:06:07.622Z,-2.81
2022-12-12T05:08:24.315Z,-2.79
2022-12-12T05:10:37.424Z,-2.76
2022-12-12T05:12:59.663Z,-2.75
2022-12-12T05:15:10.603Z,-2.73
2022-12-12T05:17:18.406Z,-2.71
2022-12-12T05:19:29.944Z,-2.69
2022-12-12T05:21:49.976Z,-2.68
2022-12-12T05:23:56.633Z,-2.64
2022-12-12T05:26:03.457Z,-2.64
2022-12-12T05:28:24.985Z,-2.62
2022-12-12T05:30:36.472Z,-2.6
2022-12-12T05:32:48.564Z,-2.59
2022-12-12T05:34:58.922Z,-2.56
2022-12-12T05:37:06.633Z,-2.55
2022-12-12T05:39:12.847Z,-2.51
2022-12-12T05:41:23.760Z,-2.51
2022-12-12T05:43:34.765Z,-2.48
2022-12-12T05:45:46.773Z,-2.45
2022-12-12T05:47:53.885Z,-2.43
2022-12-12T05:50:03.924Z,-2.4
2022-12-12T05:52:09.983Z,-2.38
2022-12-12T05:54:15.787Z,-2.36
2022-12-12T05:56:21.931Z,-2.38
2022-12-12T05:58:28.356Z,-2.35
2022-12-12T06:00:34.486Z,-2.36
2022-12-12T06:02:43.219Z,-2.29
2022-12-12T06:04:51.762Z,-2.28
2022-12-12T06:07:01.093Z,-2.27
2022-12-12T06:09:13.023Z,-2.26
2022-12-12T06:11:18.884Z,-2.24
2022-12-12T06:13:26.032Z,-2.22
2022-12-12T06:15:35.839Z,-2.21
2022-12-12T06:17:46.507Z,-2.17
2022-12-12T06:19:56.595Z,-2.17
2022-12-12T06:22:02.582Z,-2.17
2022-12-12T06:24:10.980Z,-2.14
2022-12-12T06:26:21.098Z,-2.12
2022-12-12T06:28:31.943Z,-2.08
2022-12-12T06:33:44.892Z,-2.03
2022-12-12T06:36:03.206Z,-1.99
2022-12-12T06:46:16.285Z,-1.96
2022-12-12T06:53:45.087Z,-1.84
2022-12-12T06:56:04.917Z,-1.83
2022-12-12T07:04:26.669Z,-1.75
2022-12-12T07:10:28.617Z,-1.63
2022-12-12T11:33:23.633Z,0.52
2022-12-12T11:39:41.859Z,0.54
2022-12-12T11:45:08.222Z,0.8
2022-12-12T11:47:31.097Z,0.9
2022-12-12T11:49:41.238Z,0.89
2022-12-12T11:55:22.687Z,0.88
2022-12-12T13:06:04.699Z,0.23
2022-12-12T13:14:40.817Z,0.29
2022-12-12T13:17:48.544Z,0.24
2022-12-12T13:22:21.328Z,0.22
2022-12-12T13:25:00.437Z,0.23
2022-12-12T13:27:15.879Z,0.19
2022-12-12T13:29:29.759Z,0.2
2022-12-12T13:34:49.337Z,0.18
2022-12-12T14:17:17.965Z,-0.07
2022-12-12T14:26:21.466Z,-0.08
2022-12-12T14:40:44.921Z,-0.08
2022-12-12T15:02:24.331Z,-0.03
2022-12-12T15:05:15.170Z,-0.04
2022-12-12T15:10:29.798Z,-0.02
2022-12-12T15:16:03.350Z,-0.03
2022-12-12T15:21:35.706Z,-0.02
2022-12-12T15:23:56.378Z,0.02
2022-12-12T15:33:48.543Z,0.06
2022-12-12T15:36:14.297Z,0.05
2022-12-12T15:39:01.730Z,0.05
2022-12-12T15:41:22.653Z,0.09
2022-12-12T15:43:36.667Z,0.08
2022-12-12T15:45:46.192Z,0.05
2022-12-12T15:48:03.071Z,0.1
2022-12-12T15:50:09.624Z,0.12
2022-12-12T15:52:25.233Z,0.12
2022-12-12T15:54:38.911Z,0.15
2022-12-12T15:56:56.059Z,0.17
2022-12-12T15:59:07.021Z,0.16
2022-12-12T16:01:20.811Z,0.12
2022-12-12T16:03:29.292Z,0.14
2022-12-12T16:05:37.544Z,0.14
2022-12-12T16:07:50.040Z,0.14
2022-12-12T16:10:04.797Z,0.12
2022-12-12T16:12:12.124Z,0.08
2022-12-12T16:14:22.597Z,0.09
2022-12-12T16:16:43.768Z,0.06
2022-12-12T16:18:54.436Z,0.07
2022-12-12T16:21:07.689Z,0.07
2022-12-12T16:23:35.386Z,0.09
2022-12-12T16:25:52.782Z,0.07
2022-12-12T16:28:05.328Z,0.08
2022-12-12T16:30:15.513Z,0.07
2022-12-12T16:32:29.180Z,0.03
2022-12-12T16:34:35.837Z,0.03
2022-12-12T16:36:46.606Z,0.01
2022-12-12T16:38:56.373Z,0.01
2022-12-12T16:41:06.318Z,0
2022-12-12T16:43:23.548Z,-0.04
2022-12-12T16:45:42.153Z,0
2022-12-12T16:47:49.652Z,-0.01
2022-12-12T16:49:57.415Z,0.04
2022-12-12T16:52:09.561Z,0.02
2022-12-12T16:54:24.891Z,0.02
2022-12-12T16:56:38.781Z,0.03
2022-12-12T16:58:49.664Z,0.02
2022-12-12T17:01:00.477Z,0.04
2022-12-12T17:03:15.152Z,0.02
2022-12-12T17:05:29.637Z,0.02
2022-12-12T17:07:43.265Z,0.02
2022-12-12T17:09:59.948Z,-0.01
2022-12-12T17:12:09.410Z,0.01
2022-12-12T17:14:22.707Z,0
2022-12-12T17:16:35.731Z,0.01
2022-12-12T17:18:49.692Z,0.01
2022-12-12T17:21:08.470Z,0.03
2022-12-12T17:23:32.196Z,0.01
2022-12-12T17:25:51.200Z,-0.01
2022-12-12T17:28:14.663Z,-0.02
2022-12-12T17:30:30.625Z,-0.05
2022-12-12T17:35:31.936Z,-0.11
2022-12-12T17:37:47.875Z,-0.08
2022-12-12T17:40:03.096Z,-0.09
2022-12-12T17:42:40.562Z,-0.12
2022-12-12T17:45:00.235Z,-0.17
2022-12-12T17:47:15.164Z,-0.25
2022-12-12T17:49:27.290Z,-0.29
2022-12-12T17:51:42.036Z,-0.32
2022-12-12T17:54:13.975Z,-0.35
2022-12-12T17:56:26.814Z,-0.42
2022-12-12T17:58:43.085Z,-0.48
2022-12-12T18:00:59.858Z,-0.53
2022-12-12T18:03:19.577Z,-0.5
2022-12-12T18:05:36.363Z,-0.51
2022-12-12T18:07:51.595Z,-0.52
2022-12-12T18:10:09.414Z,-0.51
2022-12-12T18:12:20.456Z,-0.53
2022-12-12T18:14:35.998Z,-0.5
2022-12-12T18:16:50.215Z,-0.52
2022-12-12T18:19:06.999Z,-0.49
2022-12-12T18:21:58.910Z,-0.48
2022-12-12T18:24:15.586Z,-0.39
2022-12-12T18:26:26.382Z,-0.34
2022-12-12T18:28:39.549Z,-0.34
2022-12-12T18:31:00.164Z,-0.35
2022-12-12T18:33:07.638Z,-0.36
2022-12-12T18:35:24.321Z,-0.32
2022-12-12T18:37:33.844Z,-0.34
2022-12-12T18:39:50.922Z,-0.29
2022-12-12T18:42:15.149Z,-0.29
2022-12-12T18:44:30.581Z,-0.31
2022-12-12T18:47:07.499Z,-0.35
2022-12-12T18:49:29.907Z,-0.33
2022-12-12T18:52:00.976Z,-0.38
2022-12-12T18:54:20.697Z,-0.38
2022-12-12T18:56:40.532Z,-0.4
2022-12-12T18:59:17.411Z,-0.38
2022-12-12T19:02:10.247Z,-0.38
2022-12-12T19:04:37.391Z,-0.36
2022-12-12T19:06:59.059Z,-0.32
2022-12-12T19:09:23.024Z,-0.32
2022-12-12T19:17:39.932Z,-0.46
2022-12-12T19:19:51.482Z,-0.48
2022-12-12T19:22:32.257Z,-0.5
2022-12-12T19:25:00.518Z,-0.56
2022-12-12T19:27:14.666Z,-0.53
2022-12-12T19:29:29.133Z,-0.55
2022-12-12T19:31:58.296Z,-0.51
2022-12-12T19:34:14.059Z,-0.59
2022-12-12T19:36:26.303Z,-0.62
2022-12-12T19:38:43.633Z,-0.68
2022-12-12T19:40:58.911Z,-0.74
2022-12-12T19:43:35.304Z,-0.76
2022-12-12T19:46:13.051Z,-0.76
2022-12-12T19:48:33.536Z,-0.69
2022-12-12T19:51:04.955Z,-0.71
2022-12-12T19:53:37.223Z,-0.73
2022-12-12T19:55:59.990Z,-0.75
2022-12-12T19:58:09.832Z,-0.77
2022-12-12T20:00:26.804Z,-0.84
2022-12-12T20:02:42.714Z,-0.87
2022-12-12T20:04:55.979Z,-0.97
2022-12-12T20:07:22.204Z,-1.03
2022-12-12T20:09:43.755Z,-1.09
2022-12-12T20:11:58.123Z,-1.08
2022-12-12T20:14:12.953Z,-1.06
2022-12-12T20:16:30.592Z,-1.12
2022-12-12T20:18:40.859Z,-1.15
2022-12-12T20:20:58.686Z,-1.07
2022-12-12T20:23:27.347Z,-0.97
2022-12-12T20:25:56.403Z,-0.93
2022-12-12T20:28:15.169Z,-0.86
2022-12-12T20:30:28.020Z,-0.8
2022-12-12T20:33:11.002Z,-0.74
2022-12-12T20:35:27.754Z,-0.69
2022-12-12T20:37:45.825Z,-0.71
2022-12-12T20:40:03.478Z,-0.66
2022-12-12T20:42:23.848Z,-0.7
2022-12-12T20:44:43.638Z,-0.69
2022-12-12T20:47:00.426Z,-0.71
2022-12-12T20:49:11.461Z,-0.73
2022-12-12T20:51:53.306Z,-0.74
2022-12-12T20:54:08.637Z,-0.7
2022-12-12T20:56:20.775Z,-0.67
2022-12-12T20:58:33.297Z,-0.73
2022-12-12T21:00:46.196Z,-0.83
2022-12-12T21:03:02.878Z,-0.88
2022-12-12T21:05:16.100Z,-0.88
2022-12-12T21:07:36.475Z,-0.95
2022-12-12T21:09:56.162Z,-0.99
2022-12-12T21:12:12.581Z,-1.06
2022-12-12T21:14:31.726Z,-1.17
2022-12-12T21:16:47.623Z,-1.27
2022-12-12T21:18:59.572Z,-1.28
2022-12-12T21:21:12.466Z,-1.36
2022-12-12T21:23:29.793Z,-1.32
2022-12-12T21:28:00.877Z,-1.41
2022-12-12T21:30:08.403Z,-1.41
2022-12-12T21:32:19.585Z,-1.42
2022-12-12T21:34:30.988Z,-1.42
2022-12-12T21:36:48.829Z,-1.41
2022-12-12T21:38:59.643Z,-1.36
2022-12-12T21:41:10.032Z,-1.35
2022-12-12T21:43:21.143Z,-1.34
2022-12-12T21:45:35.638Z,-1.41
2022-12-12T21:47:45.148Z,-1.49
2022-12-12T21:49:55.714Z,-1.55
2022-12-12T21:52:16.428Z,-1.56
2022-12-12T21:54:28.047Z,-1.59
2022-12-12T21:56:44.689Z,-1.57
2022-12-12T21:58:55.412Z,-1.68
2022-12-12T22:01:05.824Z,-1.7
2022-12-12T22:03:20.421Z,-1.7
2022-12-12T22:05:27.738Z,-1.77
2022-12-12T22:07:34.290Z,-1.86
2022-12-12T22:09:57.123Z,-1.74
2022-12-12T22:12:35.903Z,-1.68
2022-12-12T22:14:59.791Z,-1.42
2022-12-12T22:17:11.794Z,-1.29
2022-12-12T22:19:34.099Z,-1.2
2022-12-12T22:21:50.753Z,-1.07
2022-12-12T22:23:57.822Z,-1
2022-12-12T22:26:11.466Z,-0.93
2022-12-12T22:28:30.113Z,-0.84
2022-12-12T22:30:41.189Z,-0.82
2022-12-12T22:32:50.863Z,-0.77
2022-12-12T22:35:02.404Z,-0.73
2022-12-12T22:37:15.082Z,-0.71
2022-12-12T22:39:26.275Z,-0.74
2022-12-12T22:41:42.632Z,-0.83
2022-12-12T22:43:54.689Z,-0.79
2022-12-12T22:46:16.294Z,-0.77
2022-12-12T22:48:47.965Z,-0.85
2022-12-12T22:50:54.876Z,-0.9
2022-12-12T22:53:01.843Z,-0.93
2022-12-12T22:55:18.068Z,-1.02
2022-12-12T22:57:34.170Z,-1.1
2022-12-12T23:00:01.794Z,-1.02
2022-12-12T23:02:23.217Z,-0.99
2022-12-12T23:04:46.949Z,-0.94
2022-12-12T23:07:06.248Z,-0.89
2022-12-12T23:09:20.772Z,-0.85
2022-12-12T23:11:45.603Z,-0.81
2022-12-12T23:14:11.309Z,-0.76
2022-12-12T23:16:29.001Z,-0.71
2022-12-12T23:18:49.178Z,-0.68
2022-12-12T23:20:58.395Z,-0.67
2022-12-12T23:23:24.617Z,-0.66
2022-12-12T23:25:41.621Z,-0.64
2022-12-12T23:27:58.343Z,-0.62
2022-12-12T23:30:18.814Z,-0.57
2022-12-12T23:32:28.619Z,-0.57
2022-12-12T23:34:43.638Z,-0.58
2022-12-12T23:37:00.908Z,-0.57
2022-12-12T23:39:17.626Z,-0.54
2022-12-12T23:41:46.787Z,-0.5
2022-12-12T23:43:59.663Z,-0.51
2022-12-12T23:46:12.338Z,-0.5
2022-12-12T23:48:30.982Z,-0.51
2022-12-12T23:50:43.120Z,-0.54
2022-12-12T23:53:11.638Z,-0.55
2022-12-12T23:55:36.431Z,-0.56
2022-12-12T23:57:50.463Z,-0.55
2022-12-12T23:59:59.570Z,-0.63
